Aeroporto :
LOGIN :

Iscrizione | Disclaimer

   EN    FR    IT 

 










Sommario :    VFR   VFR Marginale   IFR   IFR Intensivo   IFR Molto Intensivo
Visibilità : 
Base nubi : 
>= 8 km
>= 3000ft
5 / 8 km
1000 / 3000 ft
1500m / 5 km
500 / 1000 ft
800 / 1500m
200 / 500 ft
< 800m
< 200 ft
Simboli :   Temporali  Nebbia  Neve Forte  Precipitazioni Forti  Vento > 20 kt
SIGMETs :   Varie  Temporali  Ghiacco  Turbolenza  Onda orograficha  Ceneri Vulcaniche






- Altitudine del aeroporto : 135 ft
- Codice IATA : EDI


EGPH - Edinburgh

ULTIMO METAR :
  • 120050Z 23012KT 9999 BKN023 03/02 Q0992

METARs OBSOLETI :
  • 120020Z 23008KT 9999 SCT024 BKN037 02/01 Q0992
  • 112350Z 21007KT 9999 -RA SCT018 BKN044 03/02 Q0993
  • 112320Z 23007KT 9999 BKN020 02/01 Q0993
  • 112250Z 23009KT 190V260 CAVOK 03/01 Q0993
  • 112220Z 23011KT 9999 FEW020 03/02 Q0993

TAF TAF EGPH
Valido dal 12 a 00 ore il 13 a 00 ore UTC


112302Z 1200/1224 23012KT 9999 SCT020
PROB40
TEMPO 1200/1206 7000 SHRA BKN010
BECMG 1209/1212 10007KT
TEMPO 1214/1224 6000 RA BKN012
PROB30
TEMPO 1215/1224 4000 RADZ BKN006
ATIS : +44 131 339 2823



MetMap, La meteo Aeronautica in un colpo d'occhio ! - Copyright ORBIFLY Dicembre 2007 - Disclaimer

ORBIFLY MET'MAP TEAM :

Programmazione e sviluppo : Alexandra Zaïnal
Concezione : Baudouin d'Aumeries
Aiuto per la programmazione : Marc-Olivier Méhu
Supporto tecnico e logistico : Manuel Goepfert
Aiuto per la traduzione : Arnaldo La Scala

Contatto : metmap@orbifly.com




FONTI E CREDITI :

   NOAA